createdAt,value
2019-01-05T00:00:19.097Z,12.70
2019-01-05T00:03:13.245Z,16.80
2019-01-05T00:05:58.069Z,13.97
2019-01-05T00:08:44.282Z,12.93
2019-01-05T00:11:32.736Z,13.80
2019-01-05T00:14:27.762Z,11.47
2019-01-05T00:17:16.337Z,14.23
2019-01-05T00:20:28.473Z,12.10
2019-01-05T00:23:19.525Z,14.43
2019-01-05T00:26:13.272Z,12.40
2019-01-05T00:29:02.956Z,13.90
2019-01-05T00:32:00.383Z,13.33
2019-01-05T00:34:53.606Z,11.77
2019-01-05T00:37:41.155Z,11.70
2019-01-05T00:40:28.453Z,15.78
2019-01-05T00:43:07.628Z,14.00
2019-01-05T00:46:07.236Z,16.63
2019-01-05T00:48:55.507Z,14.67
2019-01-05T00:51:44.677Z,17.10
2019-01-05T00:54:32.443Z,13.10
2019-01-05T00:57:29.998Z,13.17
2019-01-05T01:00:19.664Z,14.53
2019-01-05T01:03:13.462Z,12.97
2019-01-05T01:05:54.161Z,14.43
2019-01-05T01:08:49.698Z,14.70
2019-01-05T01:11:40.886Z,13.80
2019-01-05T01:14:27.918Z,15.27
2019-01-05T01:17:14.847Z,15.00
2019-01-05T01:20:21.100Z,14.30
2019-01-05T01:23:09.612Z,15.30
2019-01-05T01:26:01.670Z,14.30
2019-01-05T01:28:48.720Z,14.30
2019-01-05T01:31:42.949Z,14.17
2019-01-05T01:34:40.390Z,16.00
2019-01-05T01:37:28.476Z,14.07
2019-01-05T01:40:22.498Z,15.75
2019-01-05T01:43:09.222Z,14.03
2019-01-05T01:45:55.670Z,15.30
2019-01-05T01:48:43.786Z,17.10
2019-01-05T01:51:31.674Z,12.50
2019-01-05T01:54:18.102Z,16.33
2019-01-05T01:57:04.593Z,14.40
2019-01-05T02:00:26.528Z,14.30
2019-01-05T02:03:19.267Z,14.05
2019-01-05T02:06:14.279Z,16.23
2019-01-05T02:09:14.547Z,15.07
2019-01-05T02:12:05.127Z,16.37
2019-01-05T02:14:53.961Z,13.90
2019-01-05T02:17:54.702Z,15.53
2019-01-05T02:21:12.665Z,16.07
2019-01-05T02:24:25.893Z,13.00
2019-01-05T02:28:00.049Z,15.17
2019-01-05T02:31:05.720Z,15.47
2019-01-05T02:34:39.463Z,15.75
2019-01-05T02:37:58.884Z,16.77
2019-01-05T02:41:11.975Z,15.85
2019-01-05T02:44:40.432Z,16.80
2019-01-05T02:48:22.432Z,19.47
2019-01-05T02:51:45.999Z,16.35
2019-01-05T02:55:03.041Z,15.27
2019-01-05T02:58:33.888Z,17.33
2019-01-05T03:02:13.721Z,18.07
2019-01-05T03:05:33.788Z,16.30
2019-01-05T03:08:53.176Z,21.50
2019-01-05T03:12:29.542Z,20.95
2019-01-05T03:16:01.021Z,22.30
2019-01-05T03:19:42.926Z,20.30
2019-01-05T03:23:14.793Z,21.33
2019-01-05T03:27:06.875Z,19.40
2019-01-05T03:30:59.038Z,18.07
2019-01-05T03:34:14.846Z,18.30
2019-01-05T03:37:37.730Z,20.03
2019-01-05T03:41:19.375Z,18.43
2019-01-05T03:44:47.049Z,20.67
2019-01-05T03:48:24.509Z,17.77
2019-01-05T03:51:34.988Z,22.17
2019-01-05T03:55:14.118Z,18.15
2019-01-05T03:58:49.653Z,16.90
2019-01-05T04:02:19.921Z,17.87
2019-01-05T04:05:32.845Z,16.03
2019-01-05T04:08:47.580Z,11.20
2019-01-05T04:12:24.103Z,17.23
2019-01-05T04:15:49.779Z,18.37
2019-01-05T04:19:20.420Z,17.80
2019-01-05T04:23:16.696Z,14.73
2019-01-05T04:26:57.021Z,16.20
2019-01-05T04:30:04.465Z,18.00
2019-01-05T04:33:45.852Z,18.20
2019-01-05T04:36:41.408Z,15.32
2019-01-05T04:39:57.352Z,20.37
2019-01-05T04:43:21.994Z,17.37
2019-01-05T04:47:11.294Z,17.00
2019-01-05T04:50:40.107Z,14.90
2019-01-05T04:54:29.306Z,15.03
2019-01-05T04:57:52.635Z,12.83
2019-01-05T05:01:31.103Z,15.73
2019-01-05T05:04:48.690Z,19.55
2019-01-05T05:08:37.955Z,13.30
2019-01-05T05:11:50.685Z,14.90
2019-01-05T05:15:25.391Z,15.00
2019-01-05T05:18:57.644Z,13.73
2019-01-05T05:22:19.320Z,14.83
2019-01-05T05:25:46.837Z,12.53
2019-01-05T05:29:19.789Z,14.60
2019-01-05T05:32:50.205Z,11.50
2019-01-05T05:36:07.283Z,12.20
2019-01-05T05:39:31.677Z,13.40
2019-01-05T05:42:59.344Z,10.30
2019-01-05T05:46:11.675Z,9.70
2019-01-05T05:49:39.611Z,14.07
2019-01-05T05:53:10.326Z,11.93
2019-01-05T05:56:22.349Z,12.20
2019-01-05T06:00:12.372Z,14.13
2019-01-05T06:03:40.573Z,9.10
2019-01-05T06:07:33.945Z,10.00
2019-01-05T06:11:18.012Z,9.93
2019-01-05T06:14:34.122Z,14.63
2019-01-05T06:18:14.320Z,11.13
2019-01-05T06:22:06.807Z,8.73
2019-01-05T06:25:33.751Z,12.27
2019-01-05T06:29:22.001Z,9.90
2019-01-05T06:32:46.629Z,8.63
2019-01-05T06:36:30.937Z,10.30
2019-01-05T06:39:52.877Z,9.80
2019-01-05T06:43:18.909Z,12.33
2019-01-05T06:46:57.653Z,10.23
2019-01-05T06:50:37.414Z,8.97
2019-01-05T06:54:01.920Z,11.93
2019-01-05T06:57:32.333Z,11.43
2019-01-05T07:01:06.001Z,8.70
2019-01-05T07:04:35.539Z,11.20
2019-01-05T07:08:06.820Z,9.53
2019-01-05T07:11:33.862Z,8.35
2019-01-05T07:14:58.676Z,8.50
2019-01-05T07:18:21.894Z,8.27
2019-01-05T07:21:45.180Z,13.13
2019-01-05T07:24:50.508Z,14.93
2019-01-05T07:28:39.594Z,10.20
2019-01-05T07:31:49.363Z,10.23
2019-01-05T07:34:59.747Z,10.48
2019-01-05T07:38:21.397Z,10.47
2019-01-05T07:42:11.011Z,9.47
2019-01-05T07:45:33.194Z,6.85
2019-01-05T07:49:09.634Z,7.33
2019-01-05T07:52:34.168Z,6.47
2019-01-05T07:56:04.463Z,6.50
2019-01-05T07:59:21.965Z,6.80
2019-01-05T08:02:38.570Z,6.15
2019-01-05T08:06:16.012Z,6.03
2019-01-05T08:09:46.129Z,8.40
2019-01-05T08:13:12.560Z,5.43
2019-01-05T08:16:50.834Z,6.33
2019-01-05T08:20:37.167Z,3.17
2019-01-05T08:24:16.808Z,4.60
2019-01-05T08:28:13.074Z,5.17
2019-01-05T08:31:35.703Z,5.03
2019-01-05T08:35:00.211Z,4.60
2019-01-05T08:38:30.072Z,5.40
2019-01-05T08:41:56.677Z,4.75
2019-01-05T08:45:43.479Z,3.60
2019-01-05T08:49:19.804Z,3.90
2019-01-05T08:52:16.503Z,3.73
2019-01-05T08:56:04.958Z,2.92
2019-01-05T09:00:13.633Z,2.70
2019-01-05T09:03:26.727Z,3.42
2019-01-05T09:07:08.284Z,3.30
2019-01-05T09:11:01.377Z,3.27
2019-01-05T09:14:28.113Z,3.20
2019-01-05T09:18:13.740Z,5.43
2019-01-05T09:22:02.730Z,7.10
2019-01-05T09:25:26.558Z,4.27
2019-01-05T09:28:32.378Z,4.73
2019-01-05T09:32:11.532Z,8.40
2019-01-05T09:35:47.034Z,5.87
2019-01-05T09:39:12.041Z,1.97
2019-01-05T09:42:38.209Z,3.87
2019-01-05T09:46:20.634Z,3.47
2019-01-05T09:49:44.810Z,3.93
2019-01-05T09:53:22.836Z,5.72
2019-01-05T09:57:01.533Z,4.23
2019-01-05T10:00:31.667Z,4.30
2019-01-05T10:03:58.584Z,3.20
2019-01-05T10:07:21.282Z,3.87
2019-01-05T10:11:01.383Z,2.67
2019-01-05T10:14:18.789Z,4.83
2019-01-05T10:18:14.010Z,2.57
2019-01-05T10:21:44.701Z,3.40
2019-01-05T10:25:11.197Z,3.50
2019-01-05T10:28:47.325Z,3.10
2019-01-05T10:32:11.743Z,10.10
2019-01-05T10:35:51.745Z,3.83
2019-01-05T10:39:21.996Z,2.97
2019-01-05T10:42:42.289Z,3.10
2019-01-05T10:46:11.207Z,3.10
2019-01-05T10:49:42.149Z,2.47
2019-01-05T10:52:45.880Z,2.10
2019-01-05T10:56:21.621Z,1.87
2019-01-05T10:59:57.635Z,2.77
2019-01-05T11:03:27.979Z,1.30
2019-01-05T11:07:03.122Z,3.05
2019-01-05T11:11:02.768Z,1.30
2019-01-05T11:14:23.383Z,1.47
2019-01-05T11:17:35.273Z,2.20
2019-01-05T11:20:54.185Z,1.80
2019-01-05T11:24:13.182Z,2.10
2019-01-05T11:27:35.954Z,2.23
2019-01-05T11:31:12.088Z,2.20
2019-01-05T11:34:59.617Z,1.30
2019-01-05T11:38:33.297Z,1.60
2019-01-05T11:42:07.483Z,2.83
2019-01-05T11:45:27.975Z,1.23
2019-01-05T11:48:35.064Z,2.33
2019-01-05T11:52:25.894Z,2.40
2019-01-05T11:55:58.345Z,2.10
2019-01-05T11:59:38.589Z,2.50
2019-01-05T12:03:16.030Z,2.47
2019-01-05T12:06:43.132Z,2.60
2019-01-05T12:10:11.464Z,2.23
2019-01-05T12:13:31.188Z,1.90
2019-01-05T12:16:55.776Z,3.00
2019-01-05T12:20:37.187Z,1.97
2019-01-05T12:24:15.249Z,2.57
2019-01-05T12:27:40.826Z,2.57
2019-01-05T12:30:54.272Z,2.10
2019-01-05T12:34:11.218Z,2.43
2019-01-05T12:37:30.816Z,2.50
2019-01-05T12:40:57.603Z,2.45
2019-01-05T12:44:31.368Z,2.93
2019-01-05T12:48:13.903Z,3.00
2019-01-05T12:51:37.761Z,3.73
2019-01-05T12:54:54.781Z,3.83
2019-01-05T12:58:21.128Z,3.10
2019-01-05T13:01:49.599Z,4.97
2019-01-05T13:05:06.985Z,4.20
2019-01-05T13:08:26.888Z,5.90
2019-01-05T13:11:52.364Z,4.75
2019-01-05T13:15:34.236Z,5.63
2019-01-05T13:19:20.250Z,5.50
2019-01-05T13:22:41.282Z,7.23
2019-01-05T13:26:08.760Z,10.03
2019-01-05T13:29:21.979Z,6.50
2019-01-05T13:32:58.247Z,5.80
2019-01-05T13:36:38.053Z,7.17
2019-01-05T13:40:06.594Z,6.03
2019-01-05T13:43:39.584Z,6.13
2019-01-05T13:47:18.601Z,6.90
2019-01-05T13:50:30.758Z,6.20
2019-01-05T13:53:58.858Z,6.30
2019-01-05T13:56:58.310Z,4.30
2019-01-05T13:59:52.358Z,5.63
2019-01-05T14:02:39.982Z,6.10
2019-01-05T14:05:26.590Z,8.00
2019-01-05T14:08:13.273Z,5.70
2019-01-05T14:11:02.015Z,6.50
2019-01-05T14:13:48.773Z,6.10
2019-01-05T14:16:35.477Z,5.83
2019-01-05T14:19:23.375Z,5.63
2019-01-05T14:22:11.617Z,6.03
2019-01-05T14:25:01.046Z,4.53
2019-01-05T14:27:49.030Z,7.53
2019-01-05T14:30:39.854Z,5.10
2019-01-05T14:33:26.501Z,5.87
2019-01-05T14:36:15.100Z,6.37
2019-01-05T14:39:15.770Z,6.10
2019-01-05T14:41:59.913Z,5.90
2019-01-05T14:44:57.136Z,7.90
2019-01-05T14:47:44.118Z,6.37
2019-01-05T14:50:30.751Z,7.10
2019-01-05T14:53:17.253Z,12.43
2019-01-05T14:56:00.979Z,12.13
2019-01-05T14:58:47.494Z,6.33
2019-01-05T15:01:48.428Z,6.70
2019-01-05T15:04:48.666Z,8.03
2019-01-05T15:07:25.520Z,7.20
2019-01-05T15:10:16.533Z,6.63
2019-01-05T15:12:56.026Z,7.63
2019-01-05T15:15:49.883Z,9.00
2019-01-05T15:18:34.872Z,6.33
2019-01-05T15:21:15.200Z,10.10
2019-01-05T15:24:01.727Z,7.63
2019-01-05T15:26:48.285Z,6.80
2019-01-05T15:29:36.222Z,8.00
2019-01-05T15:32:39.252Z,9.43
2019-01-05T15:35:30.025Z,6.90
2019-01-05T15:38:18.704Z,8.77
2019-01-05T15:41:06.553Z,8.87
2019-01-05T15:44:00.570Z,10.00
2019-01-05T15:46:57.481Z,9.58
2019-01-05T15:49:44.329Z,12.07
2019-01-05T15:52:26.750Z,9.57
2019-01-05T15:55:11.960Z,10.82
2019-01-05T15:58:08.937Z,10.23
2019-01-05T16:00:55.549Z,11.47
2019-01-05T16:03:43.569Z,8.90
2019-01-05T16:06:43.596Z,11.50
2019-01-05T16:09:34.431Z,8.80
2019-01-05T16:12:21.258Z,10.97
2019-01-05T16:15:04.295Z,10.57
2019-01-05T16:17:50.764Z,11.80
2019-01-05T16:20:37.331Z,10.90
2019-01-05T16:23:24.156Z,11.70
2019-01-05T16:26:12.521Z,11.68
2019-01-05T16:29:02.909Z,11.83
2019-01-05T16:31:50.821Z,9.43
2019-01-05T16:34:37.205Z,8.47
2019-01-05T16:37:23.770Z,16.97
2019-01-05T16:40:18.713Z,12.58
2019-01-05T16:43:11.276Z,10.70
2019-01-05T16:45:54.831Z,10.23
2019-01-05T16:48:41.332Z,11.60
2019-01-05T16:51:28.132Z,11.95
2019-01-05T16:54:15.182Z,9.30
2019-01-05T16:57:01.962Z,10.10
2019-01-05T17:00:08.329Z,11.23
2019-01-05T17:02:54.866Z,9.17
2019-01-05T17:05:41.783Z,9.73
2019-01-05T17:08:28.388Z,11.23
2019-01-05T17:11:16.216Z,10.70
2019-01-05T17:14:19.540Z,6.62
2019-01-05T17:17:16.682Z,10.90
2019-01-05T17:19:54.451Z,10.50
2019-01-05T17:22:41.500Z,7.55
2019-01-05T17:25:44.421Z,11.13
2019-01-05T17:28:45.425Z,9.07
2019-01-05T17:31:31.913Z,10.97
2019-01-05T17:34:19.833Z,9.23
2019-01-05T17:37:06.363Z,8.63
2019-01-05T17:39:53.267Z,8.10
2019-01-05T17:42:53.352Z,7.22
2019-01-05T17:45:34.646Z,10.53
2019-01-05T17:48:31.914Z,8.45
2019-01-05T17:51:20.991Z,9.03
2019-01-05T17:54:07.995Z,11.53
2019-01-05T17:56:53.198Z,10.68
2019-01-05T17:59:34.077Z,7.80
2019-01-05T18:02:21.893Z,7.60
2019-01-05T18:05:12.429Z,7.47
2019-01-05T18:08:03.501Z,10.23
2019-01-05T18:11:00.271Z,9.87
2019-01-05T18:13:48.124Z,9.50
2019-01-05T18:16:46.979Z,11.10
2019-01-05T18:19:28.677Z,13.13
2019-01-05T18:22:15.407Z,11.50
2019-01-05T18:25:09.471Z,7.77
2019-01-05T18:28:06.346Z,11.80
2019-01-05T18:30:49.658Z,13.62
2019-01-05T18:33:28.345Z,10.93
2019-01-05T18:36:09.316Z,9.80
2019-01-05T18:39:03.445Z,10.47
2019-01-05T18:41:51.032Z,11.20
2019-01-05T18:44:32.288Z,11.10
2019-01-05T18:47:18.770Z,8.53
2019-01-05T18:49:59.744Z,9.87
2019-01-05T18:52:51.186Z,8.67
2019-01-05T18:55:36.890Z,10.20
2019-01-05T18:58:39.798Z,9.40
2019-01-05T19:01:26.584Z,9.20
2019-01-05T19:04:26.846Z,10.10
2019-01-05T19:07:13.563Z,10.77
2019-01-05T19:09:52.863Z,11.97
2019-01-05T19:12:37.286Z,12.20
2019-01-05T19:15:37.603Z,9.67
2019-01-05T19:18:20.106Z,12.15
2019-01-05T19:21:07.882Z,9.57
2019-01-05T19:23:58.308Z,11.57
2019-01-05T19:26:48.957Z,9.80
2019-01-05T19:29:45.775Z,9.00
2019-01-05T19:32:36.771Z,10.57
2019-01-05T19:35:19.980Z,10.20
2019-01-05T19:38:07.943Z,10.57
2019-01-05T19:40:54.683Z,8.40
2019-01-05T19:43:41.104Z,9.87
2019-01-05T19:46:42.806Z,11.18
2019-01-05T19:49:25.127Z,9.27
2019-01-05T19:52:25.031Z,10.27
2019-01-05T19:55:11.478Z,10.00
2019-01-05T19:57:58.245Z,8.60
2019-01-05T20:00:58.201Z,9.43
2019-01-05T20:03:49.202Z,12.10
2019-01-05T20:06:49.492Z,11.23
2019-01-05T20:09:36.172Z,9.20
2019-01-05T20:12:36.481Z,9.40
2019-01-05T20:15:27.944Z,10.30
2019-01-05T20:18:18.580Z,9.90
2019-01-05T20:21:14.777Z,12.88
2019-01-05T20:24:11.706Z,9.28
2019-01-05T20:26:58.499Z,9.70
2019-01-05T20:29:58.660Z,11.77
2019-01-05T20:32:42.928Z,7.77
2019-01-05T20:35:29.622Z,8.90
2019-01-05T20:38:16.142Z,8.53
2019-01-05T20:41:20.816Z,8.23
2019-01-05T20:44:08.623Z,8.60
2019-01-05T20:46:59.223Z,9.00
2019-01-05T20:49:59.346Z,10.83
2019-01-05T20:52:45.926Z,9.03
2019-01-05T20:55:48.913Z,9.53
2019-01-05T20:58:35.466Z,7.70
2019-01-05T21:01:27.658Z,10.43
2019-01-05T21:04:14.601Z,7.93
2019-01-05T21:07:08.469Z,9.73
2019-01-05T21:09:59.025Z,8.97
2019-01-05T21:12:52.105Z,9.17
2019-01-05T21:15:38.959Z,9.05
2019-01-05T21:18:39.897Z,8.70
2019-01-05T21:21:23.020Z,9.63
2019-01-05T21:24:16.633Z,11.43
2019-01-05T21:27:03.077Z,7.87
2019-01-05T21:29:50.857Z,10.30
2019-01-05T21:32:36.587Z,10.17
2019-01-05T21:35:18.462Z,9.13
2019-01-05T21:38:05.132Z,10.17
2019-01-05T21:40:51.518Z,10.97
2019-01-05T21:43:32.299Z,9.60
2019-01-05T21:46:15.948Z,10.50
2019-01-05T21:49:03.774Z,9.48
2019-01-05T21:51:50.288Z,9.30
2019-01-05T21:54:56.413Z,7.03
2019-01-05T21:58:02.784Z,6.83
2019-01-05T22:02:56.388Z,8.98
2019-01-05T22:05:43.136Z,7.85
2019-01-05T22:08:30.097Z,8.67
2019-01-05T22:11:29.190Z,6.90
2019-01-05T22:14:15.714Z,8.37
2019-01-05T22:17:02.268Z,8.50
2019-01-05T22:20:08.249Z,7.50
2019-01-05T22:22:54.535Z,7.50
2019-01-05T22:25:42.416Z,6.00
2019-01-05T22:28:49.176Z,10.98
2019-01-05T22:31:42.436Z,12.68
2019-01-05T22:34:29.635Z,10.03
2019-01-05T22:37:22.164Z,9.33
2019-01-05T22:40:09.987Z,8.80
2019-01-05T22:43:10.877Z,9.87
2019-01-05T22:45:58.760Z,9.03
2019-01-05T22:48:55.675Z,12.07
2019-01-05T22:51:42.201Z,10.90
2019-01-05T22:54:28.669Z,10.60
2019-01-05T22:57:15.466Z,13.80
2019-01-05T23:00:20.815Z,11.23
2019-01-05T23:03:12.654Z,8.40
2019-01-05T23:05:58.542Z,8.77
2019-01-05T23:08:45.196Z,12.80
2019-01-05T23:11:33.324Z,11.43
2019-01-05T23:14:19.026Z,10.87
2019-01-05T23:17:12.781Z,9.30
2019-01-05T23:20:00.614Z,9.53
2019-01-05T23:22:51.630Z,8.30
2019-01-05T23:25:31.447Z,9.77
2019-01-05T23:28:14.382Z,9.67
2019-01-05T23:31:01.425Z,8.45
2019-01-05T23:33:45.679Z,8.90
2019-01-05T23:36:36.875Z,10.00
2019-01-05T23:39:24.396Z,8.80
2019-01-05T23:42:11.114Z,7.87
2019-01-05T23:45:02.030Z,8.60
2019-01-05T23:47:49.933Z,8.77
2019-01-05T23:50:32.565Z,9.63
2019-01-05T23:53:14.969Z,7.70
2019-01-05T23:56:06.351Z,8.10
2019-01-05T23:59:01.753Z,7.92
